aviador You're here:

OEMA Decoded Metar

MADINAH in SAUDI ARABIA
Report Time2017-10-18 19:00:00
UTC Time2017-10-18 20:01:24
Flight Rules vfr VFR
Wind350° at 06 kt
W.Decomp.*RWY 35: 6.0 kt HW 0.3 kt LCW
RWY 36: 5.8 kt HW 1.3 kt LCW
W.Rank350° ranks 24
Current wind is above 350° avg. (5.7)
Visibility9999 m
Phenomena:N/A
Clouds:N/A
Expected CloudBase > 14,000 ft AGL from Temp-Dew spread
CeilingNone
Temp31°C (ISA +20)
Dew Point-4°C (10% RH)
Heat Index28.9°C
AAT26.3°C
QNH1016 hPa
Density Alt4,324 ft
Elevation2,070 ft
Report Wrong Elevation
Raw Report
METAR OEMA 181900Z 35006KT CAVOK 31/M04 Q1016 NOSIG=

Extra information for OEMA:More info

Metar Taf Metar & Taf Last 4 Metars F.Rules Stats Wind Profile Meteogram Temp Stats Airport Information Weather charts Add Link Nearby VenuesMetar ALERT Operation Metar Decoded Social comments